Time;durP1;ratioP1;P1;durP2;ratioP2;P2;SDS_P1;SDS_P2;PMS_P1;PMS_P2;Temp;Humidity;BMP_temperature;BMP_pressure;BME280_temperature;BME280_humidity;BME280_pressure;Samples;Min_cycle;Max_cycle;Signal;HPM_P1;HPM_P2
2023/03/26 00:00:29;;;;;;;3.10;1.20;;;8.10;1.00;;;;;;5094695;28;20799;-79
2023/03/26 00:02:58;;;;;;;4.70;1.43;;;8.20;1.00;;;;;;5095099;28;20430;-76
2023/03/26 00:05:34;;;;;;;3.63;1.00;;;8.30;1.00;;;;;;5094321;28;20911;-76
2023/03/26 00:08:01;;;;;;;1.90;1.50;;;8.40;1.00;;;;;;5094589;28;20868;-76
2023/03/26 00:10:46;;;;;;;11.53;1.53;;;8.40;1.00;;;;;;5110868;28;20431;-76
2023/03/26 00:13:16;;;;;;;4.40;0.83;;;8.50;1.00;;;;;;5104842;28;20440;-76
2023/03/26 00:15:53;;;;;;;4.10;1.63;;;8.60;1.00;;;;;;5094394;28;20442;-77
2023/03/26 00:18:33;;;;;;;2.13;1.07;;;8.70;1.00;;;;;;5076885;28;20411;-79
2023/03/26 00:21:34;;;;;;;4.33;1.50;;;8.70;1.00;;;;;;5113789;28;20423;-80
2023/03/26 00:24:08;;;;;;;4.80;1.10;;;8.70;1.00;;;;;;5114914;28;20392;-80
2023/03/26 00:26:41;;;;;;;6.60;1.23;;;8.80;1.00;;;;;;5114629;28;20854;-80
2023/03/26 00:29:34;;;;;;;2.60;1.00;;;8.70;1.00;;;;;;5114189;28;20838;-79
2023/03/26 00:32:29;;;;;;;7.30;1.07;;;8.70;1.00;;;;;;5115133;28;20786;-79
2023/03/26 00:35:16;;;;;;;4.00;1.00;;;8.80;1.00;;;;;;5114445;28;20463;-79
2023/03/26 00:38:00;;;;;;;3.80;1.47;;;8.70;1.00;;;;;;5114151;28;20404;-79
2023/03/26 00:40:35;;;;;;;4.53;1.23;;;8.70;1.00;;;;;;5094040;28;20412;-79
2023/03/26 00:43:08;;;;;;;5.63;1.50;;;8.70;1.00;;;;;;5094155;28;20446;-79
2023/03/26 00:45:34;;;;;;;8.00;1.47;;;8.70;1.00;;;;;;5094222;28;20393;-79
2023/03/26 00:48:00;;;;;;;2.60;1.23;;;8.70;1.00;;;;;;5094239;28;20397;-79
2023/03/26 00:50:26;;;;;;;5.23;1.60;;;8.60;1.00;;;;;;5076242;28;20434;-79
2023/03/26 00:52:54;;;;;;;3.90;1.37;;;8.60;1.00;;;;;;5094297;28;20404;-79
2023/03/26 00:55:22;;;;;;;4.50;1.40;;;8.70;1.00;;;;;;5093842;28;20478;-79
2023/03/26 00:58:16;;;;;;;3.87;1.30;;;8.70;1.00;;;;;;5093880;28;20401;-79
2023/03/26 01:01:29;;;;;;;11.37;1.10;;;8.70;1.00;;;;;;5109024;28;20431;-80
2023/03/26 01:04:29;;;;;;;5.00;1.10;;;8.60;1.00;;;;;;5106153;28;20438;-75
2023/03/26 01:07:09;;;;;;;4.33;1.57;;;8.60;1.00;;;;;;5011841;28;20899;-76
2023/03/26 01:09:41;;;;;;;1.20;0.93;;;8.60;1.00;;;;;;5011743;28;20526;-76
2023/03/26 01:12:40;;;;;;;3.30;1.20;;;8.70;1.00;;;;;;5011905;28;20424;-76
2023/03/26 01:15:07;;;;;;;1.53;1.00;;;8.60;1.00;;;;;;5011679;28;20959;-76
2023/03/26 01:17:33;;;;;;;5.47;1.20;;;8.60;1.00;;;;;;5020490;28;20956;-76
2023/03/26 01:20:07;;;;;;;2.33;0.90;;;8.50;1.00;;;;;;5031671;28;20413;-79
2023/03/26 01:22:36;;;;;;;2.43;1.17;;;8.50;1.00;;;;;;5029488;28;20777;-79
2023/03/26 01:25:52;;;;;;;9.13;1.53;;;8.40;1.00;;;;;;5031887;28;20848;-79
2023/03/26 01:28:25;;;;;;;8.23;1.47;;;8.50;1.00;;;;;;5031579;28;20470;-79
2023/03/26 01:31:00;;;;;;;6.13;1.57;;;8.50;1.00;;;;;;5031336;28;20446;-79
2023/03/26 01:33:32;;;;;;;7.30;1.53;;;8.50;1.00;;;;;;5031367;28;20439;-76
2023/03/26 01:36:05;;;;;;;3.57;1.30;;;8.40;1.00;;;;;;5031214;28;20420;-76
2023/03/26 01:39:01;;;;;;;4.97;2.43;;;8.30;1.00;;;;;;5031652;28;20820;-76
2023/03/26 01:41:45;;;;;;;12.00;1.90;;;8.40;1.00;;;;;;5015701;28;20392;-76
2023/03/26 01:44:44;;;;;;;7.43;1.50;;;8.30;1.00;;;;;;5088878;28;20982;-76
2023/03/26 01:47:12;;;;;;;5.33;1.43;;;8.30;1.00;;;;;;5097286;28;20719;-76
2023/03/26 01:49:53;;;;;;;3.80;1.07;;;8.30;1.00;;;;;;5097394;28;20420;-76
2023/03/26 01:52:24;;;;;;;5.17;1.30;;;8.30;1.00;;;;;;5097199;28;20392;-76
2023/03/26 01:54:55;;;;;;;6.93;1.70;;;8.20;1.00;;;;;;5097646;28;20577;-76
2023/03/26 01:57:43;;;;;;;6.27;1.53;;;8.30;1.00;;;;;;5097054;28;20749;-76
2023/03/26 02:00:30;;;;;;;3.17;1.00;;;8.30;1.00;;;;;;4995521;28;20420;-76
2023/03/26 02:03:34;;;;;;;9.13;1.63;;;8.30;1.00;;;;;;5004304;28;20398;-76
2023/03/26 02:06:38;;;;;;;2.93;1.07;;;8.40;1.00;;;;;;4998272;28;20932;-80
2023/03/26 02:10:00;;;;;;;4.43;1.33;;;8.40;1.00;;;;;;4998495;28;20416;-79
2023/03/26 02:12:46;;;;;;;5.63;1.40;;;8.50;1.00;;;;;;4920992;29;20442;-79
2023/03/26 02:15:28;;;;;;;10.03;1.37;;;8.60;1.00;;;;;;4921414;29;20450;-79
2023/03/26 02:18:05;;;;;;;10.37;1.63;;;8.70;1.00;;;;;;4937590;29;20950;-79
2023/03/26 02:20:40;;;;;;;7.07;1.30;;;8.70;1.00;;;;;;4923024;29;20459;-79
2023/03/26 02:23:16;;;;;;;6.27;1.17;;;8.70;1.00;;;;;;4918143;29;20893;-79
2023/03/26 02:25:53;;;;;;;3.07;1.13;;;8.70;1.00;;;;;;4918141;29;20412;-79
2023/03/26 02:28:22;;;;;;;8.67;1.77;;;8.60;1.00;;;;;;4918130;29;20400;-79
2023/03/26 02:30:56;;;;;;;3.50;1.20;;;8.50;1.00;;;;;;4933997;29;20824;-79
2023/03/26 02:33:22;;;;;;;13.23;1.60;;;8.60;1.00;;;;;;4936965;29;20435;-79
2023/03/26 02:35:48;;;;;;;4.53;1.10;;;8.60;1.00;;;;;;4937069;29;20921;-80
2023/03/26 02:38:14;;;;;;;12.43;1.53;;;8.70;1.00;;;;;;4998392;28;20448;-79
2023/03/26 02:40:58;;;;;;;11.20;1.40;;;8.80;1.00;;;;;;5014126;28;20435;-79
2023/03/26 02:43:24;;;;;;;4.23;1.40;;;8.80;1.00;;;;;;5014325;28;20162;-80
2023/03/26 02:45:53;;;;;;;10.33;1.40;;;8.90;1.00;;;;;;5033150;28;20466;-79
2023/03/26 02:48:35;;;;;;;8.23;1.47;;;8.80;1.00;;;;;;5103918;28;20386;-80
2023/03/26 02:51:05;;;;;;;3.90;0.93;;;8.80;1.00;;;;;;5115772;28;20416;-76
2023/03/26 02:53:31;;;;;;;3.97;1.20;;;8.90;1.00;;;;;;5115823;28;20383;-76
2023/03/26 02:55:59;;;;;;;5.67;1.17;;;9.00;1.00;;;;;;5096560;28;20766;-77
2023/03/26 02:58:25;;;;;;;5.10;1.57;;;8.80;1.00;;;;;;5095762;28;20243;-76
2023/03/26 03:00:55;;;;;;;7.43;1.60;;;8.80;1.00;;;;;;5101476;28;20443;-76
2023/03/26 03:03:26;;;;;;;1.53;1.30;;;8.80;1.00;;;;;;5097685;28;20417;-76
2023/03/26 03:05:55;;;;;;;4.70;1.40;;;8.80;1.00;;;;;;5096569;28;20402;-76
2023/03/26 03:08:23;;;;;;;7.63;1.17;;;8.80;1.00;;;;;;5077671;28;20469;-76
2023/03/26 03:11:25;;;;;;;4.63;1.40;;;8.80;1.00;;;;;;5095680;28;20420;-76
2023/03/26 03:14:05;;;;;;;9.23;1.50;;;8.70;1.00;;;;;;5033443;28;20941;-76
2023/03/26 03:16:35;;;;;;;6.03;1.23;;;8.80;1.00;;;;;;5033383;28;20418;-76
2023/03/26 03:19:05;;;;;;;3.53;1.37;;;8.70;1.00;;;;;;5016772;28;20423;-76
2023/03/26 03:21:52;;;;;;;3.43;1.30;;;8.60;1.00;;;;;;5033698;28;20446;-79
2023/03/26 03:24:35;;;;;;;4.40;1.30;;;8.70;1.00;;;;;;5033705;28;20403;-79
2023/03/26 03:27:21;;;;;;;7.50;1.67;;;8.70;1.00;;;;;;5033519;28;20862;-79
2023/03/26 03:29:46;;;;;;;5.60;1.50;;;8.70;1.00;;;;;;5013114;28;20526;-79
2023/03/26 03:32:34;;;;;;;3.30;1.60;;;8.80;1.00;;;;;;5013284;28;20435;-79
2023/03/26 03:35:05;;;;;;;9.57;1.63;;;8.80;1.00;;;;;;5048823;28;20227;-77
2023/03/26 03:37:35;;;;;;;5.40;1.53;;;8.90;1.00;;;;;;5040317;28;20430;-76
2023/03/26 03:40:09;;;;;;;2.10;1.10;;;8.90;1.00;;;;;;5032957;28;20867;-76
2023/03/26 03:42:41;;;;;;;10.27;1.40;;;8.90;1.00;;;;;;5016543;28;20443;-77
2023/03/26 03:45:23;;;;;;;7.20;1.80;;;8.90;1.00;;;;;;5032886;28;20477;-77
2023/03/26 03:47:59;;;;;;;7.10;1.57;;;8.90;1.00;;;;;;5064007;28;20454;-76
2023/03/26 03:50:30;;;;;;;6.93;1.80;;;9.00;1.00;;;;;;5095365;28;20416;-80
2023/03/26 03:56:18;;;;;;;6.03;1.43;;;9.20;1.00;;;;;;5115249;28;20387;-79
2023/03/26 03:58:45;;;;;;;8.20;1.57;;;9.20;1.00;;;;;;5115160;28;20396;-80
2023/03/26 04:01:12;;;;;;;7.03;1.43;;;9.30;1.00;;;;;;5110789;28;20428;-79
2023/03/26 04:03:53;;;;;;;6.70;1.47;;;9.30;1.00;;;;;;5076470;28;20440;-80
2023/03/26 04:07:04;;;;;;;6.20;1.60;;;9.20;1.00;;;;;;5114227;28;20403;-80
2023/03/26 04:09:41;;;;;;;3.33;1.30;;;9.10;1.00;;;;;;5096809;28;20766;-80
2023/03/26 04:15:28;;;;;;;7.10;2.00;;;9.00;1.00;;;;;;5095098;28;20431;-84
2023/03/26 04:17:54;;;;;;;4.37;1.43;;;8.90;1.00;;;;;;5074250;28;20390;-81
2023/03/26 04:20:23;;;;;;;10.00;2.10;;;9.00;1.00;;;;;;5086369;28;20249;-80
2023/03/26 04:22:58;;;;;;;10.30;2.63;;;8.90;1.00;;;;;;5094299;28;20237;-80
2023/03/26 04:25:47;;;;;;;14.20;1.90;;;9.00;1.00;;;;;;5094287;28;20388;-80
2023/03/26 04:28:32;;;;;;;7.00;1.67;;;9.10;1.00;;;;;;5074378;28;20395;-80
2023/03/26 04:31:00;;;;;;;4.50;1.63;;;9.10;1.00;;;;;;5093957;28;20435;-80
2023/03/26 04:34:04;;;;;;;13.63;1.77;;;9.20;1.00;;;;;;5082311;28;20424;-80
2023/03/26 04:37:17;;;;;;;11.90;2.03;;;9.10;1.00;;;;;;5056650;28;20425;-81
2023/03/26 04:39:53;;;;;;;2.20;1.50;;;9.10;1.00;;;;;;5080001;28;20409;-80
2023/03/26 04:42:29;;;;;;;8.90;1.60;;;9.10;1.00;;;;;;5061289;28;20433;-80
2023/03/26 04:45:05;;;;;;;7.60;1.30;;;9.10;1.00;;;;;;5073903;28;20776;-80
2023/03/26 04:50:53;;;;;;;4.80;1.60;;;9.10;1.00;;;;;;5088930;28;20435;-80
2023/03/26 04:53:23;;;;;;;5.43;1.60;;;9.10;1.00;;;;;;5059805;28;20429;-80
2023/03/26 04:56:00;;;;;;;5.97;1.50;;;9.10;1.00;;;;;;5078895;28;20191;-80
2023/03/26 04:58:41;;;;;;;6.13;1.70;;;9.00;1.00;;;;;;5075840;28;20462;-80
2023/03/26 05:01:11;;;;;;;12.53;1.90;;;8.80;1.00;;;;;;5080247;28;20490;-80
2023/03/26 05:04:04;;;;;;;5.93;1.57;;;8.80;1.00;;;;;;5073505;28;20386;-80
2023/03/26 05:06:41;;;;;;;8.30;1.80;;;8.80;1.00;;;;;;5074154;28;20394;-80
2023/03/26 05:09:34;;;;;;;5.87;1.60;;;8.70;1.00;;;;;;5073668;28;20394;-80
2023/03/26 05:12:22;;;;;;;5.33;1.60;;;8.80;1.00;;;;;;5078317;28;20820;-80
2023/03/26 05:15:34;;;;;;;9.43;1.70;;;8.80;1.00;;;;;;5096743;28;20432;-80
2023/03/26 05:18:00;;;;;;;8.67;1.90;;;8.80;1.00;;;;;;5098317;28;20406;-80
2023/03/26 05:20:30;;;;;;;10.23;2.27;;;8.90;1.00;;;;;;5092627;28;20413;-80
2023/03/26 05:26:18;;;;;;;13.73;2.70;;;8.90;1.00;;;;;;5087590;28;20400;-80
2023/03/26 05:28:52;;;;;;;8.00;1.50;;;8.90;1.00;;;;;;5077563;28;20392;-80
2023/03/26 05:31:29;;;;;;;2.00;1.50;;;8.80;1.00;;;;;;5093964;28;20442;-80
2023/03/26 05:33:59;;;;;;;6.70;2.00;;;8.80;1.00;;;;;;5077169;28;20495;-80
2023/03/26 05:37:16;;;;;;;6.50;2.00;;;8.80;1.00;;;;;;5077735;28;20396;-80
2023/03/26 05:40:12;;;;;;;12.80;1.93;;;8.80;1.00;;;;;;5077207;28;20409;-80
2023/03/26 05:43:10;;;;;;;13.00;1.67;;;8.80;1.00;;;;;;5085317;28;20407;-80
2023/03/26 05:45:58;;;;;;;8.00;1.50;;;8.80;1.00;;;;;;5079207;28;20443;-80
2023/03/26 05:48:29;;;;;;;6.50;1.90;;;8.80;1.00;;;;;;5098002;28;20389;-80
2023/03/26 05:51:05;;;;;;;17.23;2.30;;;8.90;1.00;;;;;;5097212;28;20943;-80
2023/03/26 05:53:35;;;;;;;7.70;1.67;;;8.90;1.00;;;;;;5097306;28;20392;-80
2023/03/26 05:56:01;;;;;;;7.30;2.33;;;9.00;1.00;;;;;;5078724;28;20471;-80
2023/03/26 05:58:46;;;;;;;9.53;2.10;;;9.00;1.00;;;;;;5078951;28;20805;-80
2023/03/26 06:01:34;;;;;;;4.67;2.13;;;8.80;1.00;;;;;;5089016;28;20190;-80
2023/03/26 06:04:46;;;;;;;10.37;2.40;;;8.80;1.00;;;;;;5076863;28;20386;-80
2023/03/26 06:07:34;;;;;;;9.47;1.70;;;8.80;1.00;;;;;;5077340;28;20408;-80
2023/03/26 06:10:01;;;;;;;8.07;1.97;;;8.80;1.00;;;;;;5077024;28;20436;-80
2023/03/26 06:12:58;;;;;;;11.37;2.50;;;8.90;1.00;;;;;;5078272;28;20405;-80
2023/03/26 06:15:35;;;;;;;9.00;1.77;;;9.00;1.00;;;;;;5076590;28;20566;-81
2023/03/26 06:18:11;;;;;;;7.10;2.63;;;9.00;1.00;;;;;;5058717;28;20405;-80
2023/03/26 06:20:41;;;;;;;13.33;2.13;;;9.10;1.00;;;;;;5058608;28;20406;-80
2023/03/26 06:23:07;;;;;;;12.67;2.80;;;9.20;1.00;;;;;;5058787;28;20757;-79
2023/03/26 06:25:47;;;;;;;8.03;2.20;;;9.30;1.00;;;;;;5074848;28;20508;-80
2023/03/26 06:28:13;;;;;;;17.57;2.30;;;9.40;1.00;;;;;;5076205;28;20166;-81
2023/03/26 06:31:28;;;;;;;14.87;2.37;;;9.50;1.00;;;;;;5076546;28;20791;-80
2023/03/26 06:33:59;;;;;;;10.47;1.97;;;9.60;1.00;;;;;;5076398;28;20396;-80
2023/03/26 06:36:35;;;;;;;13.13;2.40;;;9.60;1.00;;;;;;5076454;28;20393;-81
2023/03/26 06:39:11;;;;;;;9.40;2.00;;;9.60;1.00;;;;;;5081731;28;20492;-81
2023/03/26 06:41:53;;;;;;;8.13;2.00;;;9.70;1.00;;;;;;5096303;28;20509;-80
2023/03/26 06:44:23;;;;;;;12.20;2.00;;;9.80;1.00;;;;;;5096463;28;20825;-81
2023/03/26 06:46:59;;;;;;;14.53;2.50;;;9.90;1.00;;;;;;5096168;28;20917;-81
2023/03/26 06:49:58;;;;;;;5.07;1.97;;;9.90;1.00;;;;;;5082766;28;20416;-80
2023/03/26 06:52:35;;;;;;;9.07;2.30;;;10.00;1.00;;;;;;5090284;28;20490;-80
2023/03/26 06:55:11;;;;;;;11.17;2.40;;;10.10;1.00;;;;;;5064292;28;20455;-80
2023/03/26 06:57:37;;;;;;;6.73;1.97;;;10.10;1.00;;;;;;5095439;28;20466;-80
2023/03/26 07:00:04;;;;;;;8.10;2.30;;;10.10;1.00;;;;;;5073959;28;20449;-80
2023/03/26 07:02:35;;;;;;;6.80;1.60;;;10.10;1.00;;;;;;5075607;28;20188;-81
2023/03/26 07:05:34;;;;;;;7.23;2.27;;;10.10;1.00;;;;;;5078415;28;20395;-81
2023/03/26 07:08:11;;;;;;;8.90;1.73;;;10.20;1.00;;;;;;5076756;28;20424;-82
2023/03/26 07:10:53;;;;;;;7.07;1.83;;;10.30;1.00;;;;;;5076367;28;20380;-82
2023/03/26 07:13:23;;;;;;;14.00;2.03;;;10.30;1.00;;;;;;5075307;28;20400;-82
2023/03/26 07:16:05;;;;;;;11.20;1.57;;;10.40;1.00;;;;;;5076467;28;20829;-82
2023/03/26 07:18:35;;;;;;;4.80;1.77;;;10.30;1.00;;;;;;5075325;28;20900;-82
2023/03/26 07:21:18;;;;;;;10.60;2.90;;;10.10;1.00;;;;;;5075209;28;20425;-82
2023/03/26 07:23:47;;;;;;;8.30;1.97;;;10.20;1.00;;;;;;5057649;28;20469;-81
2023/03/26 07:26:28;;;;;;;16.73;2.60;;;10.20;1.00;;;;;;5078099;28;20434;-80
2023/03/26 07:29:26;;;;;;;5.63;1.80;;;10.30;1.00;;;;;;5094635;28;20363;-79
2023/03/26 07:32:13;;;;;;;10.00;2.20;;;10.20;1.00;;;;;;5071862;28;20436;-80
2023/03/26 07:35:11;;;;;;;6.80;2.13;;;10.20;1.00;;;;;;5070381;28;20458;-80
2023/03/26 07:38:16;;;;;;;5.33;2.03;;;10.20;1.00;;;;;;5082365;28;20448;-81
2023/03/26 07:40:50;;;;;;;10.50;1.67;;;10.20;1.00;;;;;;5090906;28;20428;-80
2023/03/26 07:43:55;;;;;;;7.53;2.03;;;10.20;1.00;;;;;;5074591;28;20405;-81
2023/03/26 07:46:53;;;;;;;7.93;1.90;;;10.10;1.00;;;;;;4993680;28;20410;-81
2023/03/26 07:49:30;;;;;;;15.13;2.43;;;10.00;1.00;;;;;;5000359;28;20428;-81
2023/03/26 07:52:40;;;;;;;6.17;1.77;;;10.10;1.00;;;;;;5004252;28;20431;-83
2023/03/26 07:55:42;;;;;;;9.33;1.80;;;10.10;1.00;;;;;;5011148;28;20459;-82
2023/03/26 07:58:28;;;;;;;6.00;2.20;;;10.20;1.00;;;;;;5010270;28;20480;-82
2023/03/26 08:01:13;;;;;;;8.70;2.53;;;10.20;1.00;;;;;;5005455;28;20454;-83
2023/03/26 08:04:16;;;;;;;9.10;2.13;;;10.30;1.00;;;;;;5013453;28;20483;-83
2023/03/26 08:06:57;;;;;;;15.50;2.83;;;10.20;1.00;;;;;;5012611;28;20423;-82
2023/03/26 08:09:46;;;;;;;8.73;2.40;;;10.20;1.00;;;;;;5011354;28;20570;-82
2023/03/26 08:12:28;;;;;;;5.90;2.07;;;10.20;1.00;;;;;;4996224;28;20404;-83
2023/03/26 08:15:52;;;;;;;9.27;2.10;;;10.10;1.00;;;;;;5009384;28;20547;-82
2023/03/26 08:18:49;;;;;;;10.27;2.77;;;10.20;1.00;;;;;;4930568;29;20434;-82
2023/03/26 08:21:40;;;;;;;9.17;2.23;;;10.30;1.00;;;;;;4953196;28;20876;-83
2023/03/26 08:24:25;;;;;;;9.10;2.63;;;10.40;1.00;;;;;;5012942;28;20475;-79
2023/03/26 08:47:30;;;;;;;7.97;2.10;;;10.90;1.00;;;;;;5013230;28;20422;-91
2023/03/26 08:57:10;;;;;;;6.10;1.90;;;10.70;1.00;;;;;;5084790;28;20376;-96
2023/03/26 09:07:05;;;;;;;7.53;2.50;;;10.60;1.00;;;;;;5078078;28;20375;-96
2023/03/26 09:13:21;;;;;;;7.07;2.30;;;10.60;1.00;;;;;;5074517;28;20450;-96
2023/03/26 09:19:27;;;;;;;8.77;1.77;;;10.60;1.00;;;;;;5074705;28;20410;-96
2023/03/26 09:25:45;;;;;;;4.00;2.07;;;10.40;1.00;;;;;;5089283;28;20539;-83
2023/03/26 09:28:54;;;;;;;13.20;2.57;;;10.40;1.00;;;;;;5061897;28;20748;-84
2023/03/26 09:31:58;;;;;;;8.43;2.13;;;10.10;1.00;;;;;;5057627;28;20914;-83
2023/03/26 09:35:16;;;;;;;11.17;2.07;;;10.10;1.00;;;;;;5093051;28;20460;-77
2023/03/26 09:37:56;;;;;;;3.03;1.57;;;10.10;1.00;;;;;;5092211;28;20381;-77
2023/03/26 09:40:43;;;;;;;8.40;2.03;;;10.10;1.00;;;;;;5094436;28;20460;-77
2023/03/26 09:43:28;;;;;;;3.73;1.60;;;10.10;1.00;;;;;;5093121;28;20383;-77
2023/03/26 09:46:22;;;;;;;6.57;1.90;;;10.10;1.00;;;;;;5093594;28;20487;-78
2023/03/26 09:49:02;;;;;;;6.83;2.07;;;10.10;1.00;;;;;;5088993;28;20870;-78
2023/03/26 09:51:52;;;;;;;10.33;1.77;;;10.10;1.00;;;;;;5072852;28;20421;-79
2023/03/26 09:54:52;;;;;;;5.40;1.60;;;10.40;1.00;;;;;;5073417;28;20433;-79
2023/03/26 09:57:29;;;;;;;6.17;2.70;;;10.40;1.00;;;;;;5073167;28;20930;-79
2023/03/26 10:00:35;;;;;;;6.80;1.70;;;10.70;1.00;;;;;;5060511;28;20616;-79
2023/03/26 10:03:17;;;;;;;3.37;1.73;;;11.10;1.00;;;;;;5097652;28;20415;-79
2023/03/26 10:06:22;;;;;;;5.17;1.57;;;11.40;1.00;;;;;;5096907;28;20811;-79
2023/03/26 10:09:27;;;;;;;6.23;1.53;;;11.50;1.00;;;;;;5097696;28;20766;-78
2023/03/26 10:12:05;;;;;;;4.60;1.70;;;11.50;1.00;;;;;;5097071;28;20374;-77
2023/03/26 10:14:54;;;;;;;2.50;1.00;;;11.20;1.00;;;;;;5096705;28;21036;-77
2023/03/26 10:17:30;;;;;;;5.70;1.30;;;11.10;1.00;;;;;;5096904;28;20447;-77
2023/03/26 10:20:24;;;;;;;1.97;1.00;;;11.00;1.00;;;;;;5096933;28;20398;-78
2023/03/26 10:23:18;;;;;;;6.40;1.63;;;11.10;1.00;;;;;;5096631;28;20420;-77
2023/03/26 10:25:45;;;;;;;2.60;0.93;;;11.20;1.00;;;;;;5064026;28;20421;-79
2023/03/26 10:28:47;;;;;;;1.87;1.10;;;11.50;1.00;;;;;;5081499;28;20990;-79
2023/03/26 10:31:46;;;;;;;1.40;1.20;;;11.70;1.00;;;;;;5076286;28;20908;-80
2023/03/26 10:34:35;;;;;;;1.83;1.00;;;11.70;1.00;;;;;;5086303;28;20423;-79
2023/03/26 10:37:40;;;;;;;3.37;1.57;;;11.80;1.00;;;;;;5076142;28;20756;-79
2023/03/26 10:40:29;;;;;;;6.17;1.40;;;12.10;1.00;;;;;;5058859;28;20433;-78
2023/03/26 10:43:35;;;;;;;2.23;1.40;;;12.20;1.00;;;;;;5076613;28;20863;-79
2023/03/26 10:46:23;;;;;;;1.63;1.27;;;12.40;1.00;;;;;;5057985;28;20380;-79
2023/03/26 10:52:15;;;;;;;2.00;1.10;;;13.30;1.00;;;;;;5096307;28;20402;-87
2023/03/26 10:58:25;;;;;;;4.37;1.10;;;13.30;1.00;;;;;;5076355;28;20379;-86
2023/03/26 11:01:14;;;;;;;3.67;1.20;;;13.70;1.00;;;;;;5061215;28;20400;-87
2023/03/26 11:10:52;;;;;;;1.83;1.00;;;13.60;1.00;;;;;;5096624;28;20400;-82
2023/03/26 11:13:18;;;;;;;1.97;0.90;;;14.10;1.00;;;;;;5095339;28;20487;-82
2023/03/26 11:16:01;;;;;;;1.73;0.90;;;14.30;1.00;;;;;;5093956;28;20532;-82
2023/03/26 11:18:29;;;;;;;3.13;0.97;;;14.20;1.00;;;;;;5075963;28;20182;-81
2023/03/26 11:21:13;;;;;;;3.77;1.10;;;13.90;1.00;;;;;;5095353;28;20443;-82
2023/03/26 11:24:22;;;;;;;7.13;1.70;;;13.70;1.00;;;;;;5077036;28;21904;-81
2023/03/26 11:27:29;;;;;;;3.13;1.00;;;13.70;1.00;;;;;;5084749;28;20433;-79
2023/03/26 11:30:15;;;;;;;1.57;0.80;;;13.40;1.00;;;;;;5029576;28;20435;-79
2023/03/26 11:32:54;;;;;;;5.57;0.93;;;13.20;1.00;;;;;;5033278;28;20468;-79
2023/03/26 11:35:34;;;;;;;2.67;0.90;;;12.90;1.00;;;;;;5013091;28;20535;-80
2023/03/26 11:38:12;;;;;;;3.63;1.03;;;12.80;1.00;;;;;;5032716;28;20398;-79
2023/03/26 11:41:31;;;;;;;6.00;1.97;;;12.70;1.00;;;;;;5032972;28;20800;-79
2023/03/26 11:44:24;;;;;;;1.50;1.00;;;12.70;1.00;;;;;;4939181;29;20945;-79
2023/03/26 11:46:57;;;;;;;3.30;1.10;;;12.60;1.00;;;;;;4929141;29;20457;-79
2023/03/26 11:49:54;;;;;;;2.30;1.20;;;12.90;1.00;;;;;;4937621;28;20436;-79
2023/03/26 11:52:25;;;;;;;3.70;1.23;;;13.20;1.00;;;;;;4954120;29;20743;-79
2023/03/26 11:55:05;;;;;;;2.67;0.90;;;13.70;1.00;;;;;;4954418;28;20462;-79
2023/03/26 11:57:41;;;;;;;2.00;1.10;;;14.10;1.00;;;;;;4954953;29;20460;-81
2023/03/26 12:00:17;;;;;;;2.50;1.03;;;14.40;1.00;;;;;;4954619;29;20494;-80
2023/03/26 12:02:45;;;;;;;2.37;1.07;;;15.00;1.00;;;;;;4953855;29;20434;-80
2023/03/26 12:05:33;;;;;;;1.93;0.80;;;15.50;1.00;;;;;;4953786;29;20457;-80
2023/03/26 12:08:52;;;;;;;4.23;0.90;;;15.80;1.00;;;;;;4957795;28;20939;-80
2023/03/26 12:11:30;;;;;;;2.13;1.07;;;15.80;1.00;;;;;;4973837;28;20588;-80
2023/03/26 12:14:05;;;;;;;2.63;1.00;;;15.50;1.00;;;;;;4974203;28;20766;-80
2023/03/26 12:16:57;;;;;;;1.00;0.93;;;15.30;1.00;;;;;;4957449;28;20425;-80
2023/03/26 12:19:24;;;;;;;2.70;1.50;;;14.90;1.00;;;;;;5000385;28;20890;-80
2023/03/26 12:22:30;;;;;;;3.47;1.10;;;14.50;1.00;;;;;;5077028;28;20491;-80
2023/03/26 12:25:30;;;;;;;5.43;1.50;;;14.30;1.00;;;;;;5091428;28;20433;-79
2023/03/26 12:28:14;;;;;;;1.57;1.00;;;13.80;1.00;;;;;;5075794;28;20848;-79
2023/03/26 12:30:52;;;;;;;6.73;1.20;;;13.70;1.00;;;;;;5066984;28;20885;-79
2023/03/26 12:33:27;;;;;;;1.20;0.90;;;14.00;1.00;;;;;;5075704;28;20457;-79
2023/03/26 12:36:32;;;;;;;1.13;0.90;;;14.20;1.00;;;;;;5094155;28;20406;-80
2023/03/26 12:38:59;;;;;;;2.80;0.63;;;14.20;1.00;;;;;;4992783;28;20536;-79
2023/03/26 12:41:54;;;;;;;0.93;0.87;;;14.50;1.00;;;;;;5011670;28;20416;-79
2023/03/26 12:44:51;;;;;;;2.10;0.80;;;14.50;1.00;;;;;;5012117;28;20416;-79
2023/03/26 12:51:21;;;;;;;1.90;0.80;;;14.70;1.00;;;;;;4914791;29;20459;-79
2023/03/26 12:53:52;;;;;;;1.50;0.83;;;15.10;1.00;;;;;;4915568;29;20416;-78
2023/03/26 12:56:53;;;;;;;3.93;0.90;;;15.40;1.00;;;;;;4912570;29;20467;-80
2023/03/26 12:59:41;;;;;;;0.60;0.60;;;15.60;1.00;;;;;;4920043;29;20472;-80
2023/03/26 13:02:24;;;;;;;1.73;0.70;;;15.60;1.00;;;;;;4909346;29;20809;-80
2023/03/26 13:05:12;;;;;;;3.27;0.97;;;15.20;1.00;;;;;;4915616;29;20424;-80
2023/03/26 13:08:17;;;;;;;2.63;0.90;;;14.90;1.00;;;;;;4915231;29;20418;-81
2023/03/26 13:11:23;;;;;;;2.93;0.80;;;14.90;1.00;;;;;;4982626;28;20420;-83
2023/03/26 13:17:22;;;;;;;1.70;0.80;;;14.40;1.00;;;;;;4975955;28;20553;-84
2023/03/26 13:23:46;;;;;;;1.80;1.30;;;14.60;1.00;;;;;;5003209;28;20387;-88
2023/03/26 13:30:02;;;;;;;2.30;0.90;;;14.70;1.00;;;;;;5074167;28;20368;-92
2023/03/26 13:32:46;;;;;;;1.50;1.00;;;14.70;1.00;;;;;;5049480;28;20413;-82
2023/03/26 13:35:37;;;;;;;1.90;0.87;;;14.30;1.00;;;;;;5052550;28;21024;-81
2023/03/26 13:38:30;;;;;;;2.10;0.97;;;14.30;1.00;;;;;;5040673;28;20408;-81
2023/03/26 13:41:11;;;;;;;1.40;0.90;;;14.20;1.00;;;;;;5054562;28;20400;-81
2023/03/26 13:43:52;;;;;;;2.13;0.90;;;13.90;1.00;;;;;;5055723;28;20404;-88
2023/03/26 13:49:47;;;;;;;4.07;0.80;;;13.70;1.00;;;;;;5036023;28;20398;-85
2023/03/26 13:55:37;;;;;;;3.00;0.70;;;13.70;1.00;;;;;;5037595;28;20500;-86
2023/03/26 13:58:25;;;;;;;3.07;0.80;;;13.40;1.00;;;;;;5055277;28;20932;-86
2023/03/26 14:01:20;;;;;;;1.50;0.90;;;13.10;1.00;;;;;;5035810;28;20398;-90
2023/03/26 14:10:34;;;;;;;1.63;0.90;;;11.90;1.00;;;;;;5073042;28;20367;-83
2023/03/26 14:13:18;;;;;;;1.27;0.50;;;11.80;1.00;;;;;;5077013;28;20939;-83
2023/03/26 14:15:57;;;;;;;2.10;0.93;;;12.00;1.00;;;;;;5076766;28;20513;-82
2023/03/26 14:18:35;;;;;;;0.90;0.67;;;12.10;1.00;;;;;;5074049;28;20423;-81
2023/03/26 14:21:52;;;;;;;1.83;0.80;;;12.30;1.00;;;;;;5076388;28;20908;-82
2023/03/26 14:24:43;;;;;;;2.97;0.60;;;12.40;1.00;;;;;;5087394;28;20486;-79
2023/03/26 14:27:51;;;;;;;3.43;0.60;;;12.40;1.00;;;;;;5082589;28;20399;-80
2023/03/26 14:30:47;;;;;;;1.10;0.67;;;12.40;1.00;;;;;;5014117;28;20515;-80
2023/03/26 14:33:40;;;;;;;3.17;0.90;;;12.30;1.00;;;;;;5014534;28;20773;-80
2023/03/26 14:36:45;;;;;;;2.30;0.70;;;12.30;1.00;;;;;;4995122;28;20611;-78
2023/03/26 14:39:35;;;;;;;3.13;0.90;;;12.40;1.00;;;;;;5014020;28;20430;-78
2023/03/26 14:42:11;;;;;;;1.53;0.60;;;12.50;1.00;;;;;;5013855;28;20524;-78
2023/03/26 14:45:16;;;;;;;3.10;0.80;;;12.60;1.00;;;;;;5014462;28;20388;-81
2023/03/26 14:48:34;;;;;;;2.60;0.70;;;12.70;1.00;;;;;;4996576;28;20387;-80
2023/03/26 14:51:36;;;;;;;2.10;0.70;;;13.00;1.00;;;;;;4997841;28;20423;-81
2023/03/26 14:54:13;;;;;;;2.57;1.00;;;13.20;1.00;;;;;;5013569;28;20433;-80
2023/03/26 14:56:46;;;;;;;2.77;0.70;;;13.40;1.00;;;;;;4996405;28;20432;-84
2023/03/26 15:00:06;;;;;;;1.70;0.83;;;13.60;1.00;;;;;;5013737;28;20438;-82
2023/03/26 15:02:50;;;;;;;3.23;0.60;;;13.80;1.00;;;;;;4936710;29;20430;-82
2023/03/26 15:05:46;;;;;;;9.53;0.90;;;13.70;1.00;;;;;;4935921;29;20871;-80
2023/03/26 15:09:08;;;;;;;4.97;0.93;;;13.40;1.00;;;;;;5003284;28;20455;-82
2023/03/26 15:11:47;;;;;;;2.17;0.60;;;13.40;1.00;;;;;;4994229;28;20380;-82
2023/03/26 15:14:32;;;;;;;2.40;0.97;;;13.30;1.00;;;;;;4994813;28;20814;-77
2023/03/26 15:17:35;;;;;;;1.33;0.80;;;13.30;1.00;;;;;;4977800;28;20392;-76
2023/03/26 15:20:46;;;;;;;2.70;1.90;;;13.30;1.00;;;;;;4966316;28;20444;-77
2023/03/26 15:23:32;;;;;;;1.57;0.93;;;14.00;1.00;;;;;;4974630;28;20459;-76
2023/03/26 15:26:16;;;;;;;1.50;0.90;;;14.70;1.00;;;;;;4974675;28;20472;-76
2023/03/26 15:29:10;;;;;;;1.90;1.00;;;14.90;1.00;;;;;;4975259;28;20382;-77
2023/03/26 15:32:07;;;;;;;4.40;0.60;;;14.70;1.00;;;;;;4974561;28;20472;-78
2023/03/26 15:34:53;;;;;;;6.17;1.03;;;14.40;1.00;;;;;;4974590;28;20574;-76
2023/03/26 15:37:48;;;;;;;1.90;0.90;;;14.10;1.00;;;;;;4958106;28;20416;-76
2023/03/26 15:40:22;;;;;;;2.70;1.00;;;13.70;1.00;;;;;;5012786;28;20564;-76
2023/03/26 15:46:09;;;;;;;4.20;0.80;;;13.30;1.00;;;;;;5066472;28;20396;-81
2023/03/26 15:48:54;;;;;;;1.97;0.90;;;13.10;1.00;;;;;;5074869;28;20380;-81
2023/03/26 15:51:53;;;;;;;1.60;0.63;;;13.00;1.00;;;;;;5091341;28;20159;-82
2023/03/26 15:54:44;;;;;;;2.00;0.70;;;12.80;1.00;;;;;;5095319;28;20719;-81
2023/03/26 15:57:47;;;;;;;1.97;0.80;;;12.50;1.00;;;;;;5094605;28;20931;-82
2023/03/26 16:00:21;;;;;;;1.27;0.50;;;12.30;1.00;;;;;;5073467;28;20822;-81
2023/03/26 16:03:30;;;;;;;0.60;0.40;;;12.00;1.00;;;;;;5074656;28;20485;-81
2023/03/26 16:06:29;;;;;;;3.37;0.57;;;11.40;1.00;;;;;;5074918;28;20397;-81
2023/03/26 16:10:03;;;;;;;2.67;0.50;;;10.80;1.00;;;;;;5074892;28;20468;-80
2023/03/26 16:12:45;;;;;;;2.30;0.40;;;10.30;1.00;;;;;;4993563;28;20408;-80